Grand Race — 3FZH9 — position and weather

sailwx.info

Track history (hours):
 
Tides and Currents Weather Stations Pressure Air Temp Water Temp Dewpoint Dewpoint Depression Visibility Wind Speed Wind Dir Waves Ship Positions

Grand Race

Last reported at 2018-Jun-18 09:00 UTC. Time now 2018-Jun-22 07:31 UTC.
Position N 34°57' E 139°38'.

Length 179.2 m; beam 32.3 m.

Type: Cargo ship. MMSI: 357983000.

Date/timePositionNaut miles runAvg speedWind from/ knotsBaromVisibWave heightAir tempDewpointWater temp
2018-Jun-18 09:00N 34°57' E 139°38'816.9
2018-Jun-18 08:30N 35°05' E 139°42'815.2
2018-Jun-18 08:00N 35°12' E 139°45'510.7
2018-Jun-18 07:30N 35°17' E 139°44'612.7
2018-Jun-18 07:00N 35°23' E 139°42'4 8.3
2018-Jun-18 06:30N 35°27' E 139°43'2 3.1
2018-Jun-18 06:00N 35°28' E 139°41'0 0.0
2018-Jun-18 05:30N 35°28' E 139°41'0 0.0
2018-Jun-18 05:00N 35°28' E 139°41'0 0.0
2018-Jun-18 04:30N 35°28' E 139°41'0 0.0
2018-Jun-18 04:00N 35°28' E 139°41'0 0.0
2018-Jun-18 03:30N 35°28' E 139°41'0 0.0
2018-Jun-18 03:00N 35°28' E 139°41'0 0.0
2018-Jun-18 02:30N 35°28' E 139°41'0 0.0
2018-Jun-18 02:00N 35°28' E 139°41'0 0.0
2018-Jun-18 01:30N 35°28' E 139°41'0 0.0
2018-Jun-18 01:00N 35°28' E 139°41'0 0.0
2018-Jun-18 00:30N 35°28' E 139°41'0 0.0
2018-Jun-18 00:00N 35°28' E 139°41'0 0.0
2018-Jun-17 23:30N 35°28' E 139°41'0 0.0
2018-Jun-17 23:00N 35°28' E 139°41'1 1.1
2018-Jun-17 22:30N 35°28' E 139°42'2 3.3
2018-Jun-17 22:00N 35°27' E 139°43'3 6.7
2018-Jun-17 21:30N 35°25' E 139°46'611.1
2018-Jun-17 21:00N 35°20' E 139°44'611.1
2018-Jun-17 20:30N 35°14' E 139°47'5 9.9
2018-Jun-17 20:00N 35°10' E 139°46'4 7.1
2018-Jun-17 19:30N 35°06' E 139°45'4 8.1
2018-Jun-17 18:59N 35°02' E 139°43'5 9.5
2018-Jun-17 18:26N 34°57' E 139°42'813.3
2018-Jun-17 17:52N 34°50' E 139°43'  
2018-Jun-14 19:28N 33°32' E 135°15'816.9
2018-Jun-14 18:58N 33°38' E 135°08'818.1
2018-Jun-14 18:30N 33°45' E 135°04'918.1
2018-Jun-14 18:00N 33°53' E 134°58'917.5
2018-Jun-14 17:30N 34°01' E 134°57'917.2
2018-Jun-14 17:00N 34°10' E 134°57'713.0
2018-Jun-14 16:30N 34°17' E 134°58'917.6
2018-Jun-14 16:00N 34°25' E 135°02'917.2
2018-Jun-14 15:30N 34°32' E 135°07'4 9.0
2018-Jun-14 15:00N 34°36' E 135°03'714.2
2018-Jun-14 14:30N 34°35' E 134°55'815.8
2018-Jun-14 14:00N 34°32' E 134°46'917.0
2018-Jun-14 13:30N 34°28' E 134°36'917.6
2018-Jun-14 13:00N 34°25' E 134°26'816.3
2018-Jun-14 12:30N 34°24' E 134°17'  
Track history (hours):
 
Tides and Currents Weather Stations Pressure Air Temp Water Temp Dewpoint Dewpoint Depression Visibility Wind Speed Wind Dir Waves Ship Positions

Grand Race

Last reported at 2018-Jun-18 09:00 UTC. Time now 2018-Jun-22 07:31 UTC.
Position N 34°57' E 139°38'.

Length 179.2 m; beam 32.3 m.

Type: Cargo ship. MMSI: 357983000.

Date/timePositionNaut miles runAvg speedWind from/ knotsBaromVisibWave heightAir tempDewpointWater temp
2018-Jun-18 09:00N 34°57' E 139°38'816.9
2018-Jun-18 08:30N 35°05' E 139°42'815.2
2018-Jun-18 08:00N 35°12' E 139°45'510.7
2018-Jun-18 07:30N 35°17' E 139°44'612.7
2018-Jun-18 07:00N 35°23' E 139°42'4 8.3
2018-Jun-18 06:30N 35°27' E 139°43'2 3.1
2018-Jun-18 06:00N 35°28' E 139°41'0 0.0
2018-Jun-18 05:30N 35°28' E 139°41'0 0.0
2018-Jun-18 05:00N 35°28' E 139°41'0 0.0
2018-Jun-18 04:30N 35°28' E 139°41'0 0.0
2018-Jun-18 04:00N 35°28' E 139°41'0 0.0
2018-Jun-18 03:30N 35°28' E 139°41'0 0.0
2018-Jun-18 03:00N 35°28' E 139°41'0 0.0
2018-Jun-18 02:30N 35°28' E 139°41'0 0.0
2018-Jun-18 02:00N 35°28' E 139°41'0 0.0
2018-Jun-18 01:30N 35°28' E 139°41'0 0.0
2018-Jun-18 01:00N 35°28' E 139°41'0 0.0
2018-Jun-18 00:30N 35°28' E 139°41'0 0.0
2018-Jun-18 00:00N 35°28' E 139°41'0 0.0
2018-Jun-17 23:30N 35°28' E 139°41'0 0.0
2018-Jun-17 23:00N 35°28' E 139°41'1 1.1
2018-Jun-17 22:30N 35°28' E 139°42'2 3.3
2018-Jun-17 22:00N 35°27' E 139°43'3 6.7
2018-Jun-17 21:30N 35°25' E 139°46'611.1
2018-Jun-17 21:00N 35°20' E 139°44'611.1
2018-Jun-17 20:30N 35°14' E 139°47'5 9.9
2018-Jun-17 20:00N 35°10' E 139°46'4 7.1
2018-Jun-17 19:30N 35°06' E 139°45'4 8.1
2018-Jun-17 18:59N 35°02' E 139°43'5 9.5
2018-Jun-17 18:26N 34°57' E 139°42'813.3
2018-Jun-17 17:52N 34°50' E 139°43'  
2018-Jun-14 19:28N 33°32' E 135°15'816.9
2018-Jun-14 18:58N 33°38' E 135°08'818.1
2018-Jun-14 18:30N 33°45' E 135°04'918.1
2018-Jun-14 18:00N 33°53' E 134°58'917.5
2018-Jun-14 17:30N 34°01' E 134°57'917.2
2018-Jun-14 17:00N 34°10' E 134°57'713.0
2018-Jun-14 16:30N 34°17' E 134°58'917.6
2018-Jun-14 16:00N 34°25' E 135°02'917.2
2018-Jun-14 15:30N 34°32' E 135°07'4 9.0
2018-Jun-14 15:00N 34°36' E 135°03'714.2
2018-Jun-14 14:30N 34°35' E 134°55'815.8
2018-Jun-14 14:00N 34°32' E 134°46'917.0
2018-Jun-14 13:30N 34°28' E 134°36'917.6
2018-Jun-14 13:00N 34°25' E 134°26'816.3
2018-Jun-14 12:30N 34°24' E 134°17'  

Dump ship's entire track history